^^
Station Historical Data
Daily Summary for June 14, 2018 Units:  Both    English   Metric
« Previous Day
Next Day »
Daily Weekly Monthly Yearly Custom
  High: Low: Average:
Temperature: TemperatureF °F /  -17.8 °C 49.6 °F /  9.8 °C 66.4 °F /  19.1 °C
Dew Point: DewpointF °F /  -17.8 °C 49.1 °F /  9.5 °C 51.6 °F /  10.9 °C
Humidity: Humidity% 35% 64%
Wind Speed: WindSpeedMPHmph /  0km/h - 1.4mph /  2.3km/h
Wind Gust: WindSpeedGustMPHmph /  0km/h - -
Wind- - SSE
Pressure: PressureIn in /  0 hPa 30.00 in /  1015.8 hPa -
Precipitation: 0.00 in /  0 mm    
Historical Graphs
 
 
Tabular Data for June 14, 2018
Time Temperature Dew Point Pressure Wind Wind Speed Wind Gust Humidity Rainfall Rate (Hourly) solar Conditions
TemperatureF °F /  -17.8 °C DewpointF °F /  -17.8 °C PressureInin /  0hPa Calm     Humidity% HourlyPrecipInin /  0mm SolarRadiationWatts/m^2 W/m2 Conditions
00:04 52.5 °F /  11.4 °C 50.6 °F /  10.3 °C 30.00in /  1015.8hPa Calm     93% 0.00in /  0mm 0.00 W/m2 RA
00:09 52.5 °F /  11.4 °C 51.1 °F /  10.6 °C 30.00in /  1015.8hPa Calm     95% 0.00in /  0mm 0.00 W/m2 RA
00:14 52.5 °F /  11.4 °C 51.1 °F /  10.6 °C 30.00in /  1015.8hPa Calm     95% 0.00in /  0mm 0.00 W/m2 CLR
00:19 52.2 °F /  11.2 °C 50.8 °F /  10.4 °C 30.00in /  1015.8hPa Calm     95% 0.00in /  0mm 0.00 W/m2 CLR
00:24 52.2 °F /  11.2 °C 50.8 °F /  10.4 °C 30.00in /  1015.8hPa Calm     95% 0.00in /  0mm 0.00 W/m2 CLR
00:29 52.2 °F /  11.2 °C 50.8 °F /  10.4 °C 30.00in /  1015.8hPa Calm     95% 0.00in /  0mm 0.00 W/m2 CLR
00:34 52.2 °F /  11.2 °C 50.8 °F /  10.4 °C 30.00in /  1015.8hPa Calm     95% 0.00in /  0mm 0.00 W/m2 CLR
00:39 52.2 °F /  11.2 °C 50.8 °F /  10.4 °C 30.00in /  1015.8hPa Calm     95% 0.00in /  0mm 0.00 W/m2 CLR
00:44 52.2 °F /  11.2 °C 50.8 °F /  10.4 °C 30.00in /  1015.8hPa Calm     95% 0.00in /  0mm 0.00 W/m2 CLR
00:49 52.2 °F /  11.2 °C 50.8 °F /  10.4 °C 30.01in /  1016.1hPa Calm     95% 0.00in /  0mm 0.00 W/m2 CLR
00:54 51.8 °F /  11 °C 50.7 °F /  10.4 °C 30.01in /  1016.1hPa Calm     96% 0.00in /  0mm 0.00 W/m2 CLR
00:59 51.8 °F /  11 °C 50.7 °F /  10.4 °C 30.01in /  1016.1hPa Calm     96% 0.00in /  0mm 0.00 W/m2 CLR
01:04 51.4 °F /  10.8 °C 50.3 °F /  10.2 °C 30.01in /  1016.1hPa Calm     96% 0.00in /  0mm 0.00 W/m2 CLR
01:09 51.4 °F /  10.8 °C 50.3 °F /  10.2 °C 30.01in /  1016.1hPa Calm     96% 0.00in /  0mm 0.00 W/m2 CLR
01:14 51.3 °F /  10.7 °C 50.2 °F /  10.1 °C 30.01in /  1016.1hPa Calm     96% 0.00in /  0mm 0.00 W/m2 CLR
01:19 51.1 °F /  10.6 °C 50.0 °F /  10 °C 30.01in /  1016.1hPa Calm     96% 0.00in /  0mm 0.00 W/m2 CLR
01:24 51.1 °F /  10.6 °C 50.0 °F /  10 °C 30.03in /  1016.8hPa Calm     96% 0.00in /  0mm 0.00 W/m2 CLR
01:29 50.9 °F /  10.5 °C 49.8 °F /  9.9 °C 30.03in /  1016.8hPa Calm     96% 0.00in /  0mm 0.00 W/m2 CLR
01:34 50.7 °F /  10.4 °C 50.2 °F /  10.1 °C 30.01in /  1016.1hPa Calm     98% 0.00in /  0mm 0.00 W/m2 CLR
01:39 50.7 °F /  10.4 °C 50.2 °F /  10.1 °C 30.01in /  1016.1hPa Calm     98% 0.00in /  0mm 0.00 W/m2 CLR
01:44 50.7 °F /  10.4 °C 50.2 °F /  10.1 °C 30.03in /  1016.8hPa Calm     98% 0.00in /  0mm 0.00 W/m2 CLR
01:49 50.7 °F /  10.4 °C 50.2 °F /  10.1 °C 30.03in /  1016.8hPa Calm     98% 0.00in /  0mm 0.00 W/m2 CLR
01:54 50.5 °F /  10.3 °C 50.0 °F /  10 °C 30.03in /  1016.8hPa Calm     98% 0.00in /  0mm 0.00 W/m2 CLR
01:59 50.5 °F /  10.3 °C 50.0 °F /  10 °C 30.03in /  1016.8hPa Calm     98% 0.00in /  0mm 0.00 W/m2 CLR
02:04 50.5 °F /  10.3 °C 50.0 °F /  10 °C 30.03in /  1016.8hPa Calm     98% 0.00in /  0mm 0.00 W/m2 CLR
02:09 50.5 °F /  10.3 °C 50.0 °F /  10 °C 30.03in /  1016.8hPa Calm     98% 0.00in /  0mm 0.00 W/m2 CLR
02:14 50.4 °F /  10.2 °C 49.8 °F /  9.9 °C 30.03in /  1016.8hPa Calm     98% 0.00in /  0mm 0.00 W/m2 CLR
02:19 50.2 °F /  10.1 °C 49.6 °F /  9.8 °C 30.04in /  1017.2hPa Calm     98% 0.00in /  0mm 0.00 W/m2 CLR
02:24 50.0 °F /  10 °C 49.5 °F /  9.7 °C 30.04in /  1017.2hPa Calm     98% 0.00in /  0mm 0.00 W/m2 CLR
02:29 50.0 °F /  10 °C 49.5 °F /  9.7 °C 30.04in /  1017.2hPa Calm     98% 0.00in /  0mm 0.00 W/m2 CLR
02:34 49.8 °F /  9.9 °C 49.3 °F /  9.6 °C 30.04in /  1017.2hPa Calm     98% 0.00in /  0mm 0.00 W/m2 CLR
02:39 49.8 °F /  9.9 °C 49.3 °F /  9.6 °C 30.03in /  1016.8hPa Calm     98% 0.00in /  0mm 0.00 W/m2 CLR
02:44 49.8 °F /  9.9 °C 49.3 °F /  9.6 °C 30.04in /  1017.2hPa Calm     98% 0.00in /  0mm 0.00 W/m2 CLR
02:49 49.6 °F /  9.8 °C 49.1 °F /  9.5 °C 30.04in /  1017.2hPa Calm     98% 0.00in /  0mm 0.00 W/m2 CLR
02:54 49.6 °F /  9.8 °C 49.1 °F /  9.5 °C 30.04in /  1017.2hPa Calm     98% 0.00in /  0mm 0.00 W/m2 CLR
02:59 49.6 °F /  9.8 °C 49.1 °F /  9.5 °C 30.04in /  1017.2hPa Calm     98% 0.00in /  0mm 0.00 W/m2 CLR
03:04 49.8 °F /  9.9 °C 49.3 °F /  9.6 °C 30.04in /  1017.2hPa Calm     98% 0.00in /  0mm 0.00 W/m2 CLR
03:09 49.8 °F /  9.9 °C 49.3 °F /  9.6 °C 30.05in /  1017.5hPa Calm     98% 0.00in /  0mm 0.00 W/m2 CLR
03:14 49.8 °F /  9.9 °C 49.3 °F /  9.6 °C 30.05in /  1017.5hPa Calm     98% 0.00in /  0mm 0.00 W/m2 CLR
03:19 49.8 °F /  9.9 °C 49.3 °F /  9.6 °C 30.05in /  1017.5hPa West 0.9mph /  1.4km/h 0.2mph /  0.3km/h 98% 0.00in /  0mm 0.00 W/m2 CLR
03:24 50.4 °F /  10.2 °C 49.8 °F /  9.9 °C 30.06in /  1017.8hPa West 2.3mph /  3.7km/h 0.4mph /  0.6km/h 98% 0.00in /  0mm 0.00 W/m2 CLR
03:29 50.4 °F /  10.2 °C 49.8 °F /  9.9 °C 30.06in /  1017.8hPa West 2.0mph /  3.2km/h 0.4mph /  0.6km/h 98% 0.00in /  0mm 0.00 W/m2 CLR
03:34 50.5 °F /  10.3 °C 50.0 °F /  10 °C 30.06in /  1017.8hPa SW 0.9mph /  1.4km/h 0.4mph /  0.6km/h 98% 0.00in /  0mm 0.00 W/m2 CLR
03:39 50.7 °F /  10.4 °C 49.6 °F /  9.8 °C 30.06in /  1017.8hPa Calm     96% 0.00in /  0mm 0.00 W/m2 CLR
03:44 50.7 °F /  10.4 °C 49.6 °F /  9.8 °C 30.06in /  1017.8hPa Calm     96% 0.00in /  0mm 0.00 W/m2 CLR
03:49 50.5 °F /  10.3 °C 49.4 °F /  9.7 °C 30.06in /  1017.8hPa Calm     96% 0.00in /  0mm 0.00 W/m2 CLR
03:54 50.4 °F /  10.2 °C 49.3 °F /  9.6 °C 30.06in /  1017.8hPa WSW 1.2mph /  1.9km/h 0.2mph /  0.3km/h 96% 0.00in /  0mm 0.00 W/m2 CLR
03:59 50.4 °F /  10.2 °C 49.3 °F /  9.6 °C 30.06in /  1017.8hPa WSW 2.0mph /  3.2km/h 0.2mph /  0.3km/h 96% 0.00in /  0mm 0.00 W/m2 CLR
04:04 50.4 °F /  10.2 °C 49.3 °F /  9.6 °C 30.07in /  1018.2hPa Calm     96% 0.00in /  0mm 0.00 W/m2 CLR
04:09 50.4 °F /  10.2 °C 49.3 °F /  9.6 °C 30.07in /  1018.2hPa Calm     96% 0.00in /  0mm 0.00 W/m2 CLR
04:14 50.2 °F /  10.1 °C 49.6 °F /  9.8 °C 30.07in /  1018.2hPa Calm     98% 0.00in /  0mm 0.00 W/m2 CLR
04:19 50.2 °F /  10.1 °C 49.6 °F /  9.8 °C 30.07in /  1018.2hPa Calm     98% 0.00in /  0mm 0.00 W/m2 CLR
04:24 50.2 °F /  10.1 °C 49.6 °F /  9.8 °C 30.07in /  1018.2hPa Calm     98% 0.00in /  0mm 0.00 W/m2 CLR
04:29 50.2 °F /  10.1 °C 49.6 °F /  9.8 °C 30.07in /  1018.2hPa Calm     98% 0.00in /  0mm 0.00 W/m2 CLR
04:34 50.2 °F /  10.1 °C 49.6 °F /  9.8 °C 30.08in /  1018.5hPa Calm     98% 0.00in /  0mm 0.00 W/m2 CLR
04:39 50.2 °F /  10.1 °C 49.6 °F /  9.8 °C 30.08in /  1018.5hPa Calm     98% 0.00in /  0mm 0.00 W/m2 CLR
04:44 50.0 °F /  10 °C 49.5 °F /  9.7 °C 30.08in /  1018.5hPa Calm     98% 0.00in /  0mm 0.00 W/m2 CLR
04:49 50.0 °F /  10 °C 49.5 °F /  9.7 °C 30.09in /  1018.8hPa Calm     98% 0.00in /  0mm 0.00 W/m2 CLR
04:54 50.0 °F /  10 °C 49.5 °F /  9.7 °C 30.08in /  1018.5hPa WSW 1.2mph /  1.9km/h   98% 0.00in /  0mm 0.00 W/m2 CLR
04:59 50.0 °F /  10 °C 49.5 °F /  9.7 °C 30.09in /  1018.8hPa Calm     98% 0.00in /  0mm 101.70 W/m2 CLR
05:04 50.0 °F /  10 °C 49.5 °F /  9.7 °C 30.09in /  1018.8hPa Calm   0.2mph /  0.3km/h 98% 0.00in /  0mm 154.20 W/m2 CLR
05:09 50.0 °F /  10 °C 49.5 °F /  9.7 °C 30.09in /  1018.8hPa Calm     98% 0.00in /  0mm 167.30 W/m2 CLR
05:14 50.0 °F /  10 °C 49.5 °F /  9.7 °C 30.09in /  1018.8hPa Calm     98% 0.00in /  0mm 190.60 W/m2 CLR
05:19 50.0 °F /  10 °C 49.5 °F /  9.7 °C 30.09in /  1018.8hPa WSW 1.2mph /  1.9km/h 0.2mph /  0.3km/h 98% 0.00in /  0mm 198.70 W/m2 CLR
05:24 50.0 °F /  10 °C 49.5 °F /  9.7 °C 30.09in /  1018.8hPa Calm     98% 0.00in /  0mm 209.80 W/m2 CLR
05:29 50.0 °F /  10 °C 49.5 °F /  9.7 °C 30.10in /  1019.2hPa Calm     98% 0.00in /  0mm 218.90 W/m2 CLR
05:34 49.8 °F /  9.9 °C 49.3 °F /  9.6 °C 30.10in /  1019.2hPa Calm     98% 0.00in /  0mm 222.90 W/m2 CLR
05:39 49.8 °F /  9.9 °C 49.3 °F /  9.6 °C 30.10in /  1019.2hPa Calm     98% 0.00in /  0mm 222.90 W/m2 CLR
05:44 50.0 °F /  10 °C 49.5 °F /  9.7 °C 30.11in /  1019.5hPa Calm     98% 0.00in /  0mm 235.00 W/m2 CLR
05:49 49.6 °F /  9.8 °C 49.1 °F /  9.5 °C 30.11in /  1019.5hPa Calm     98% 0.00in /  0mm 236.00 W/m2 CLR
05:54 50.2 °F /  10.1 °C 49.6 °F /  9.8 °C 30.11in /  1019.5hPa Calm   0.2mph /  0.3km/h 98% 0.00in /  0mm 241.10 W/m2 CLR
05:59 50.2 °F /  10.1 °C 49.6 °F /  9.8 °C 30.11in /  1019.5hPa Calm     98% 0.00in /  0mm 243.10 W/m2 CLR
06:04 50.5 °F /  10.3 °C 49.4 °F /  9.7 °C 30.11in /  1019.5hPa Calm     96% 0.00in /  0mm 247.10 W/m2 CLR
06:09 51.1 °F /  10.6 °C 50.0 °F /  10 °C 30.11in /  1019.5hPa WNW 2.3mph /  3.7km/h 0.4mph /  0.6km/h 96% 0.00in /  0mm 250.20 W/m2 CLR
06:14 51.3 °F /  10.7 °C 50.2 °F /  10.1 °C 30.12in /  1019.9hPa WSW 2.3mph /  3.7km/h 0.4mph /  0.6km/h 96% 0.00in /  0mm 253.20 W/m2 CLR
06:19 51.8 °F /  11 °C 50.4 °F /  10.2 °C 30.11in /  1019.5hPa Calm   0.2mph /  0.3km/h 95% 0.00in /  0mm 256.20 W/m2 CLR
06:24 52.3 °F /  11.3 °C 50.4 °F /  10.2 °C 30.11in /  1019.5hPa West 0.9mph /  1.4km/h 0.2mph /  0.3km/h 93% 0.00in /  0mm 257.20 W/m2 CLR
06:29 53.2 °F /  11.8 °C 50.7 °F /  10.4 °C 30.11in /  1019.5hPa West 2.3mph /  3.7km/h 1.3mph /  2.1km/h 91% 0.00in /  0mm 258.30 W/m2 CLR
06:34 53.8 °F /  12.1 °C 50.9 °F /  10.5 °C 30.11in /  1019.5hPa SW 1.2mph /  1.9km/h 0.7mph /  1.1km/h 90% 0.00in /  0mm 260.30 W/m2 CLR
06:39 54.1 °F /  12.3 °C 50.7 °F /  10.4 °C 30.12in /  1019.9hPa Calm   0.2mph /  0.3km/h 88% 0.00in /  0mm 262.30 W/m2 CLR
06:44 54.1 °F /  12.3 °C 51.3 °F /  10.7 °C 30.12in /  1019.9hPa Calm   0.2mph /  0.3km/h 90% 0.00in /  0mm 263.30 W/m2 CLR
06:49 54.7 °F /  12.6 °C 51.8 °F /  11 °C 30.12in /  1019.9hPa Calm     90% 0.00in /  0mm 264.30 W/m2 CLR
06:54 55.6 °F /  13.1 °C 52.1 °F /  11.2 °C 30.12in /  1019.9hPa Calm     88% 0.00in /  0mm 266.30 W/m2 CLR
06:59 55.6 °F /  13.1 °C 52.1 °F /  11.2 °C 30.11in /  1019.5hPa Calm     88% 0.00in /  0mm 266.30 W/m2 CLR
07:04 55.8 °F /  13.2 °C 52.3 °F /  11.3 °C 30.11in /  1019.5hPa Calm     88% 0.00in /  0mm 269.40 W/m2 CLR
07:09 56.3 °F /  13.5 °C 52.8 °F /  11.6 °C 30.11in /  1019.5hPa Calm     88% 0.00in /  0mm 271.40 W/m2 CLR
07:14 58.5 °F /  14.7 °C 53.3 °F /  11.8 °C 30.11in /  1019.5hPa Calm     83% 0.00in /  0mm 272.40 W/m2 CLR
07:19 58.5 °F /  14.7 °C 53.3 °F /  11.8 °C 30.10in /  1019.2hPa Calm     83% 0.00in /  0mm 273.40 W/m2 CLR
07:24 59.9 °F /  15.5 °C 53.7 °F /  12.1 °C 30.10in /  1019.2hPa Calm     80% 0.00in /  0mm 274.40 W/m2 CLR
07:29 61.0 °F /  16.1 °C 54.4 °F /  12.4 °C 30.10in /  1019.2hPa Calm     79% 0.00in /  0mm 275.40 W/m2 CLR
07:34 62.2 °F /  16.8 °C 54.2 °F /  12.3 °C 30.10in /  1019.2hPa Calm     75% 0.00in /  0mm 277.40 W/m2 CLR
07:39 64.4 °F /  18 °C 54.4 °F /  12.4 °C 30.10in /  1019.2hPa Calm     70% 0.00in /  0mm 280.50 W/m2 CLR
07:44 65.8 °F /  18.8 °C 54.2 °F /  12.3 °C 30.09in /  1018.8hPa Calm     66% 0.00in /  0mm 280.50 W/m2 CLR
07:49 67.3 °F /  19.6 °C 55.1 °F /  12.8 °C 30.10in /  1019.2hPa SSE 0.9mph /  1.4km/h 0.2mph /  0.3km/h 65% 0.00in /  0mm 283.50 W/m2 CLR
07:54 67.6 °F /  19.8 °C 54.6 °F /  12.6 °C 30.10in /  1019.2hPa Calm   0.4mph /  0.6km/h 63% 0.00in /  0mm 287.50 W/m2 CLR
07:59 67.8 °F /  19.9 °C 54.8 °F /  12.7 °C 30.10in /  1019.2hPa SE 1.2mph /  1.9km/h 0.4mph /  0.6km/h 63% 0.00in /  0mm 90.00 W/m2 CLR
08:04 68.4 °F /  20.2 °C 54.4 °F /  12.4 °C 30.10in /  1019.2hPa Calm     61% 0.00in /  0mm 107.00 W/m2 CLR
08:09 69.1 °F /  20.6 °C 53.7 °F /  12.1 °C 30.10in /  1019.2hPa West 1.2mph /  1.9km/h 0.2mph /  0.3km/h 58% 0.00in /  0mm 297.60 W/m2 CLR
08:14 70.0 °F /  21.1 °C 54.5 °F /  12.5 °C 30.10in /  1019.2hPa West 1.2mph /  1.9km/h 0.2mph /  0.3km/h 58% 0.00in /  0mm 377.40 W/m2 CLR
08:19 69.8 °F /  21 °C 53.4 °F /  11.9 °C 30.10in /  1019.2hPa Calm   0.2mph /  0.3km/h 56% 0.00in /  0mm 394.60 W/m2 CLR
08:24 69.3 °F /  20.7 °C 52.4 °F /  11.3 °C 30.11in /  1019.5hPa NE 3.5mph /  5.6km/h 1.6mph /  2.6km/h 55% 0.00in /  0mm 180.00 W/m2 CLR
08:29 70.5 °F /  21.4 °C 53.6 °F /  12 °C 30.10in /  1019.2hPa Calm     55% 0.00in /  0mm 199.00 W/m2 CLR
08:34 70.0 °F /  21.1 °C 53.6 °F /  12 °C 30.11in /  1019.5hPa WNW 1.2mph /  1.9km/h 0.4mph /  0.6km/h 56% 0.00in /  0mm 775.40 W/m2 CLR
08:39 71.4 °F /  21.9 °C 53.9 °F /  12.2 °C 30.11in /  1019.5hPa ESE 3.5mph /  5.6km/h 0.9mph /  1.4km/h 54% 0.00in /  0mm 802.60 W/m2 CLR
08:44 71.4 °F /  21.9 °C 53.9 °F /  12.2 °C 30.11in /  1019.5hPa East 2.3mph /  3.7km/h 0.9mph /  1.4km/h 54% 0.00in /  0mm 802.60 W/m2 CLR
08:49 71.8 °F /  22.1 °C 54.7 °F /  12.6 °C 30.12in /  1019.9hPa Calm     55% 0.00in /  0mm 821.80 W/m2 CLR
08:54 72.1 °F /  22.3 °C 55.1 °F /  12.8 °C 30.12in /  1019.9hPa NE 1.2mph /  1.9km/h 0.2mph /  0.3km/h 55% 0.00in /  0mm 832.90 W/m2 CLR
08:59 73.0 °F /  22.8 °C 53.8 °F /  12.1 °C 30.11in /  1019.5hPa Calm   0.2mph /  0.3km/h 51% 0.00in /  0mm 832.90 W/m2 CLR
09:04 73.0 °F /  22.8 °C 52.7 °F /  11.5 °C 30.12in /  1019.9hPa South 3.5mph /  5.6km/h 0.9mph /  1.4km/h 49% 0.00in /  0mm 838.00 W/m2 CLR
09:09 73.9 °F /  23.3 °C 54.1 °F /  12.3 °C 30.12in /  1019.9hPa NNE 2.3mph /  3.7km/h 0.4mph /  0.6km/h 50% 0.00in /  0mm 841.00 W/m2 CLR
09:14 75.0 °F /  23.9 °C 52.8 °F /  11.6 °C 30.12in /  1019.9hPa SSE 3.5mph /  5.6km/h 1.1mph /  1.8km/h 46% 0.00in /  0mm 854.20 W/m2 CLR
09:19 75.0 °F /  23.9 °C 52.2 °F /  11.2 °C 30.11in /  1019.5hPa East 2.3mph /  3.7km/h 1.8mph /  2.9km/h 45% 0.00in /  0mm 858.20 W/m2 CLR
09:24 75.4 °F /  24.1 °C 53.2 °F /  11.8 °C 30.12in /  1019.9hPa ESE 2.3mph /  3.7km/h 0.9mph /  1.4km/h 46% 0.00in /  0mm 858.20 W/m2 CLR
09:29 75.6 °F /  24.2 °C 52.7 °F /  11.5 °C 30.12in /  1019.9hPa ESE 3.5mph /  5.6km/h 2.2mph /  3.5km/h 45% 0.00in /  0mm 862.20 W/m2 CLR
09:34 75.4 °F /  24.1 °C 51.9 °F /  11.1 °C 30.11in /  1019.5hPa SE 2.0mph /  3.2km/h 1.8mph /  2.9km/h 44% 0.00in /  0mm 862.20 W/m2 CLR
09:39 75.6 °F /  24.2 °C 53.3 °F /  11.8 °C 30.11in /  1019.5hPa East 3.5mph /  5.6km/h 1.8mph /  2.9km/h 46% 0.00in /  0mm 865.30 W/m2 CLR
09:44 74.8 °F /  23.8 °C 53.8 °F /  12.1 °C 30.11in /  1019.5hPa West 2.3mph /  3.7km/h 1.3mph /  2.1km/h 48% 0.00in /  0mm 868.30 W/m2 CLR
09:49 74.3 °F /  23.5 °C 53.9 °F /  12.2 °C 30.11in /  1019.5hPa ESE 2.3mph /  3.7km/h 1.1mph /  1.8km/h 49% 0.00in /  0mm 858.20 W/m2 CLR
09:54 75.9 °F /  24.4 °C 53.6 °F /  12 °C 30.11in /  1019.5hPa East 1.2mph /  1.9km/h 0.2mph /  0.3km/h 46% 0.00in /  0mm 847.10 W/m2 CLR
09:59 75.9 °F /  24.4 °C 53.6 °F /  12 °C 30.11in /  1019.5hPa Calm   0.7mph /  1.1km/h 46% 0.00in /  0mm 593.00 W/m2 CLR
10:04 76.5 °F /  24.7 °C 53.5 °F /  11.9 °C 30.11in /  1019.5hPa Calm   1.1mph /  1.8km/h 45% 0.00in /  0mm 867.30 W/m2 CLR
10:09 76.8 °F /  24.9 °C 53.3 °F /  11.8 °C 30.12in /  1019.9hPa SE 3.5mph /  5.6km/h 2.0mph /  3.2km/h 44% 0.00in /  0mm 867.30 W/m2 CLR
10:14 75.6 °F /  24.2 °C 54.5 °F /  12.5 °C 30.12in /  1019.9hPa SSW 1.2mph /  1.9km/h 0.7mph /  1.1km/h 48% 0.00in /  0mm 873.30 W/m2 CLR
10:19 75.6 °F /  24.2 °C 55.1 °F /  12.8 °C 30.12in /  1019.9hPa Calm     49% 0.00in /  0mm 842.00 W/m2 CLR
10:24 76.3 °F /  24.6 °C 54.0 °F /  12.2 °C 30.11in /  1019.5hPa Calm     46% 0.00in /  0mm 857.20 W/m2 CLR
10:29 76.5 °F /  24.7 °C 55.9 °F /  13.3 °C 30.11in /  1019.5hPa Calm     49% 0.00in /  0mm 858.20 W/m2 CLR
10:34 75.6 °F /  24.2 °C 53.3 °F /  11.8 °C 30.12in /  1019.9hPa Calm   0.4mph /  0.6km/h 46% 0.00in /  0mm 752.00 W/m2 CLR
10:39 74.5 °F /  23.6 °C 53.5 °F /  11.9 °C 30.13in /  1020.2hPa ESE 2.3mph /  3.7km/h 0.4mph /  0.6km/h 48% 0.00in /  0mm 622.90 W/m2 CLR
10:44 74.3 °F /  23.5 °C 54.5 °F /  12.5 °C 30.13in /  1020.2hPa Calm   0.2mph /  0.3km/h 50% 0.00in /  0mm 443.10 W/m2 CLR
10:49 73.9 °F /  23.3 °C 54.7 °F /  12.6 °C 30.13in /  1020.2hPa Calm     51% 0.00in /  0mm 448.10 W/m2 CLR
10:54 73.6 °F /  23.1 °C 56.4 °F /  13.6 °C 30.13in /  1020.2hPa Calm     55% 0.00in /  0mm 415.80 W/m2 CLR
10:59 73.8 °F /  23.2 °C 56.1 °F /  13.4 °C 30.13in /  1020.2hPa Calm     54% 0.00in /  0mm 414.80 W/m2 CLR
11:04 73.8 °F /  23.2 °C 56.1 °F /  13.4 °C 30.14in /  1020.5hPa West 1.2mph /  1.9km/h 0.9mph /  1.4km/h 54% 0.00in /  0mm 411.80 W/m2 CLR
11:09 73.0 °F /  22.8 °C 55.9 °F /  13.3 °C 30.13in /  1020.2hPa Calm   0.2mph /  0.3km/h 55% 0.00in /  0mm 411.80 W/m2 CLR
11:14 73.8 °F /  23.2 °C 56.1 °F /  13.4 °C 30.14in /  1020.5hPa SSE 1.2mph /  1.9km/h 0.7mph /  1.1km/h 54% 0.00in /  0mm 624.90 W/m2 CLR
11:19 73.4 °F /  23 °C 56.2 °F /  13.4 °C 30.14in /  1020.5hPa ESE 1.2mph /  1.9km/h 0.4mph /  0.6km/h 55% 0.00in /  0mm 624.90 W/m2 CLR
11:24 72.9 °F /  22.7 °C 55.7 °F /  13.2 °C 30.14in /  1020.5hPa Calm   0.2mph /  0.3km/h 55% 0.00in /  0mm 624.90 W/m2 CLR
11:29 72.9 °F /  22.7 °C 55.7 °F /  13.2 °C 30.14in /  1020.5hPa Calm     55% 0.00in /  0mm 974.00 W/m2 CLR
11:34 73.0 °F /  22.8 °C 56.4 °F /  13.6 °C 30.14in /  1020.5hPa Calm     56% 0.00in /  0mm 991.00 W/m2 CLR
11:39 73.0 °F /  22.8 °C 57.4 °F /  14.1 °C 30.14in /  1020.5hPa Calm     58% 0.00in /  0mm 514.80 W/m2 CLR
11:44 73.0 °F /  22.8 °C 57.4 °F /  14.1 °C 30.14in /  1020.5hPa WSW 1.2mph /  1.9km/h 0.2mph /  0.3km/h 58% 0.00in /  0mm 1025.00 W/m2 CLR
11:49 73.9 °F /  23.3 °C 56.2 °F /  13.4 °C 30.13in /  1020.2hPa ESE 2.3mph /  3.7km/h 0.4mph /  0.6km/h 54% 0.00in /  0mm 825.90 W/m2 CLR
11:54 75.0 °F /  23.9 °C 55.7 °F /  13.2 °C 30.12in /  1019.9hPa NNE 3.5mph /  5.6km/h 1.8mph /  2.9km/h 51% 0.00in /  0mm 851.10 W/m2 CLR
11:59 75.6 °F /  24.2 °C 55.6 °F /  13.1 °C 30.12in /  1019.9hPa South 3.5mph /  5.6km/h 2.2mph /  3.5km/h 50% 0.00in /  0mm 868.30 W/m2 CLR
12:04 75.9 °F /  24.4 °C 54.8 °F /  12.7 °C 30.12in /  1019.9hPa East 1.2mph /  1.9km/h 2.7mph /  4.3km/h 48% 0.00in /  0mm 877.40 W/m2 CLR
12:09 77.5 °F /  25.3 °C 54.5 °F /  12.5 °C 30.11in /  1019.5hPa NNE 3.5mph /  5.6km/h 1.8mph /  2.9km/h 45% 0.00in /  0mm 890.50 W/m2 CLR
12:14 78.1 °F /  25.6 °C 55.0 °F /  12.8 °C 30.12in /  1019.9hPa East 2.3mph /  3.7km/h 2.2mph /  3.5km/h 45% 0.00in /  0mm 892.50 W/m2 CLR
12:19 77.5 °F /  25.3 °C 55.1 °F /  12.8 °C 30.12in /  1019.9hPa SSW 4.6mph /  7.4km/h 1.3mph /  2.1km/h 46% 0.00in /  0mm 889.50 W/m2 CLR
12:24 78.4 °F /  25.8 °C 54.7 °F /  12.6 °C 30.12in /  1019.9hPa ESE 3.5mph /  5.6km/h 2.7mph /  4.3km/h 44% 0.00in /  0mm 891.50 W/m2 CLR
12:29 78.3 °F /  25.7 °C 54.6 °F /  12.6 °C 30.12in /  1019.9hPa ESE 3.5mph /  5.6km/h 2.5mph /  4km/h 44% 0.00in /  0mm 878.40 W/m2 CLR
12:34 80.1 °F /  26.7 °C 55.5 °F /  13.1 °C 30.12in /  1019.9hPa North 2.3mph /  3.7km/h 1.3mph /  2.1km/h 43% 0.00in /  0mm 891.50 W/m2 CLR
12:39 80.1 °F /  26.7 °C 53.6 °F /  12 °C 30.12in /  1019.9hPa SSE 3.5mph /  5.6km/h 2.5mph /  4km/h 40% 0.00in /  0mm 896.60 W/m2 CLR
12:44 80.2 °F /  26.8 °C 53.7 °F /  12.1 °C 30.12in /  1019.9hPa NE 3.5mph /  5.6km/h 2.9mph /  4.7km/h 40% 0.00in /  0mm 897.60 W/m2 CLR
12:49 80.8 °F /  27.1 °C 54.2 °F /  12.3 °C 30.12in /  1019.9hPa West 2.3mph /  3.7km/h 1.3mph /  2.1km/h 40% 0.00in /  0mm 896.60 W/m2 CLR
12:54 81.3 °F /  27.4 °C 54.7 °F /  12.6 °C 30.11in /  1019.5hPa North 1.2mph /  1.9km/h 1.3mph /  2.1km/h 40% 0.00in /  0mm 898.60 W/m2 CLR
12:59 81.0 °F /  27.2 °C 54.4 °F /  12.4 °C 30.11in /  1019.5hPa WNW 2.3mph /  3.7km/h 1.6mph /  2.6km/h 40% 0.00in /  0mm 896.60 W/m2 CLR
13:04 81.0 °F /  27.2 °C 54.4 °F /  12.4 °C 30.12in /  1019.9hPa Calm   1.6mph /  2.6km/h 40% 0.00in /  0mm 896.60 W/m2 CLR
13:09 81.0 °F /  27.2 °C 54.4 °F /  12.4 °C 30.11in /  1019.5hPa West 2.3mph /  3.7km/h 1.1mph /  1.8km/h 40% 0.00in /  0mm 1197.00 W/m2 CLR
13:14 80.2 °F /  26.8 °C 53.7 °F /  12.1 °C 30.11in /  1019.5hPa South 2.3mph /  3.7km/h 1.8mph /  2.9km/h 40% 0.00in /  0mm 895.60 W/m2 CLR
13:19 80.8 °F /  27.1 °C 54.2 °F /  12.3 °C 30.11in /  1019.5hPa NNE 2.3mph /  3.7km/h 2.0mph /  3.2km/h 40% 0.00in /  0mm 895.60 W/m2 CLR
13:24 81.9 °F /  27.7 °C 54.5 °F /  12.5 °C 30.11in /  1019.5hPa ENE 4.0mph /  6.4km/h 2.0mph /  3.2km/h 39% 0.00in /  0mm 896.60 W/m2 CLR
13:29 81.9 °F /  27.7 °C 54.5 °F /  12.5 °C 30.11in /  1019.5hPa ESE 1.2mph /  1.9km/h 3.4mph /  5.5km/h 39% 0.00in /  0mm 894.60 W/m2 CLR
13:34 81.9 °F /  27.7 °C 54.5 °F /  12.5 °C 30.10in /  1019.2hPa SSW 3.5mph /  5.6km/h 2.7mph /  4.3km/h 39% 0.00in /  0mm 894.60 W/m2 CLR
13:39 81.9 °F /  27.7 °C 54.5 °F /  12.5 °C 30.11in /  1019.5hPa Calm   0.7mph /  1.1km/h 39% 0.00in /  0mm 898.60 W/m2 CLR
13:44 81.3 °F /  27.4 °C 52.6 °F /  11.4 °C 30.10in /  1019.2hPa West 3.5mph /  5.6km/h 2.2mph /  3.5km/h 37% 0.00in /  0mm 898.60 W/m2 CLR
13:49 81.3 °F /  27.4 °C 54.7 °F /  12.6 °C 30.10in /  1019.2hPa ENE 2.3mph /  3.7km/h 2.0mph /  3.2km/h 40% 0.00in /  0mm 894.60 W/m2 CLR
13:54 81.0 °F /  27.2 °C 55.0 °F /  12.8 °C 30.10in /  1019.2hPa NNE 3.5mph /  5.6km/h 2.5mph /  4km/h 41% 0.00in /  0mm 875.40 W/m2 CLR
13:59 81.7 °F /  27.6 °C 52.9 °F /  11.6 °C 30.10in /  1019.2hPa ESE 2.9mph /  4.7km/h 1.8mph /  2.9km/h 37% 0.00in /  0mm 886.50 W/m2 CLR
14:04 81.7 °F /  27.6 °C 52.9 °F /  11.6 °C 30.10in /  1019.2hPa ESE 3.5mph /  5.6km/h 1.8mph /  2.9km/h 37% 0.00in /  0mm 892.50 W/m2 CLR
14:09 81.9 °F /  27.7 °C 51.5 °F /  10.8 °C 30.09in /  1018.8hPa SSE 2.0mph /  3.2km/h 1.6mph /  2.6km/h 35% 0.00in /  0mm 897.60 W/m2 CLR
14:14 82.2 °F /  27.9 °C 53.4 °F /  11.9 °C 30.09in /  1018.8hPa SSW 2.3mph /  3.7km/h 2.0mph /  3.2km/h 37% 0.00in /  0mm 895.60 W/m2 CLR
14:19 81.9 °F /  27.7 °C 53.0 °F /  11.7 °C 30.09in /  1018.8hPa SSW 1.2mph /  1.9km/h 1.1mph /  1.8km/h 37% 0.00in /  0mm 894.60 W/m2 CLR
14:24 82.2 °F /  27.9 °C 51.8 °F /  11 °C 30.09in /  1018.8hPa SW 4.6mph /  7.4km/h 1.8mph /  2.9km/h 35% 0.00in /  0mm 893.50 W/m2 CLR
14:29 81.9 °F /  27.7 °C 51.5 °F /  10.8 °C 30.09in /  1018.8hPa SSE 2.0mph /  3.2km/h 1.3mph /  2.1km/h 35% 0.00in /  0mm 892.50 W/m2 CLR
14:34 81.9 °F /  27.7 °C 51.5 °F /  10.8 °C 30.09in /  1018.8hPa East 3.5mph /  5.6km/h 2.2mph /  3.5km/h 35% 0.00in /  0mm 889.50 W/m2 CLR
14:39 81.7 °F /  27.6 °C 51.4 °F /  10.8 °C 30.09in /  1018.8hPa SE 4.0mph /  6.4km/h 3.1mph /  5km/h 35% 0.00in /  0mm 890.50 W/m2 CLR
14:44 82.0 °F /  27.8 °C 53.2 °F /  11.8 °C 30.08in /  1018.5hPa ESE 4.6mph /  7.4km/h 3.1mph /  5km/h 37% 0.00in /  0mm 891.50 W/m2 CLR
14:49 81.7 °F /  27.6 °C 51.4 °F /  10.8 °C 30.08in /  1018.5hPa South 3.5mph /  5.6km/h 2.7mph /  4.3km/h 35% 0.00in /  0mm 893.50 W/m2 CLR
14:54 82.9 °F /  28.3 °C 52.5 °F /  11.4 °C 30.08in /  1018.5hPa SW 2.3mph /  3.7km/h 1.8mph /  2.9km/h 35% 0.00in /  0mm 893.50 W/m2 CLR
14:59 82.8 °F /  28.2 °C 52.3 °F /  11.3 °C 30.07in /  1018.2hPa WNW 3.5mph /  5.6km/h 2.9mph /  4.7km/h 35% 0.00in /  0mm 894.60 W/m2 CLR
15:04 82.6 °F /  28.1 °C 52.2 °F /  11.2 °C 30.07in /  1018.2hPa WNW 1.2mph /  1.9km/h 2.2mph /  3.5km/h 35% 0.00in /  0mm 894.60 W/m2 CLR
15:09 82.6 °F /  28.1 °C 52.2 °F /  11.2 °C 30.07in /  1018.2hPa WNW 4.9mph /  7.9km/h 4.0mph /  6.4km/h 35% 0.00in /  0mm 895.60 W/m2 CLR
15:14 82.8 °F /  28.2 °C 52.3 °F /  11.3 °C 30.07in /  1018.2hPa ESE 3.5mph /  5.6km/h 2.7mph /  4.3km/h 35% 0.00in /  0mm 0.00 W/m2 CLR
15:19 82.6 °F /  28.1 °C 52.2 °F /  11.2 °C 30.07in /  1018.2hPa ESE 4.0mph /  6.4km/h 2.2mph /  3.5km/h 35% 0.00in /  0mm 894.60 W/m2 CLR
15:24 82.0 °F /  27.8 °C 51.7 °F /  10.9 °C 30.07in /  1018.2hPa NW 2.9mph /  4.7km/h 0.9mph /  1.4km/h 35% 0.00in /  0mm 890.50 W/m2 CLR
15:29 82.9 °F /  28.3 °C 52.5 °F /  11.4 °C 30.06in /  1017.8hPa SSE 3.5mph /  5.6km/h 1.3mph /  2.1km/h 35% 0.00in /  0mm 894.60 W/m2 CLR
15:34 82.8 °F /  28.2 °C 52.3 °F /  11.3 °C 30.06in /  1017.8hPa ENE 3.5mph /  5.6km/h 1.3mph /  2.1km/h 35% 0.00in /  0mm 894.60 W/m2 CLR
15:39 83.5 °F /  28.6 °C 52.9 °F /  11.6 °C 30.06in /  1017.8hPa South 4.0mph /  6.4km/h 1.8mph /  2.9km/h 35% 0.00in /  0mm 890.50 W/m2 CLR
15:44 82.6 °F /  28.1 °C 52.2 °F /  11.2 °C 30.06in /  1017.8hPa NE 3.5mph /  5.6km/h 2.7mph /  4.3km/h 35% 0.00in /  0mm 887.50 W/m2 CLR
15:49 82.8 °F /  28.2 °C 52.3 °F /  11.3 °C 30.06in /  1017.8hPa NE 4.9mph /  7.9km/h 2.7mph /  4.3km/h 35% 0.00in /  0mm 887.50 W/m2 CLR
15:54 82.8 °F /  28.2 °C 52.3 °F /  11.3 °C 30.06in /  1017.8hPa ESE 4.6mph /  7.4km/h 2.7mph /  4.3km/h 35% 0.00in /  0mm 887.50 W/m2 CLR
15:59 82.2 °F /  27.9 °C 51.8 °F /  11 °C 30.06in /  1017.8hPa East 4.0mph /  6.4km/h 2.2mph /  3.5km/h 35% 0.00in /  0mm 890.50 W/m2 CLR
16:04 82.0 °F /  27.8 °C 51.7 °F /  10.9 °C 30.06in /  1017.8hPa NW 2.9mph /  4.7km/h 2.0mph /  3.2km/h 35% 0.00in /  0mm 890.50 W/m2 CLR
16:09 82.6 °F /  28.1 °C 52.2 °F /  11.2 °C 30.06in /  1017.8hPa East 4.9mph /  7.9km/h 4.0mph /  6.4km/h 35% 0.00in /  0mm 887.50 W/m2 CLR
16:14 81.3 °F /  27.4 °C 52.6 °F /  11.4 °C 30.06in /  1017.8hPa ESE 4.6mph /  7.4km/h 2.9mph /  4.7km/h 37% 0.00in /  0mm 890.50 W/m2 CLR
16:19 81.9 °F /  27.7 °C 53.0 °F /  11.7 °C 30.06in /  1017.8hPa West 6.9mph /  11.1km/h 4.0mph /  6.4km/h 37% 0.00in /  0mm 887.50 W/m2 CLR
16:24 81.7 °F /  27.6 °C 52.9 °F /  11.6 °C 30.06in /  1017.8hPa NNE 3.5mph /  5.6km/h 3.1mph /  5km/h 37% 0.00in /  0mm 886.50 W/m2 CLR
16:29 81.9 °F /  27.7 °C 53.0 °F /  11.7 °C 30.06in /  1017.8hPa ENE 3.5mph /  5.6km/h 2.2mph /  3.5km/h 37% 0.00in /  0mm 885.50 W/m2 CLR
16:34 81.9 °F /  27.7 °C 53.0 °F /  11.7 °C 30.05in /  1017.5hPa SE 3.5mph /  5.6km/h 2.2mph /  3.5km/h 37% 0.00in /  0mm 884.40 W/m2 CLR
16:39 81.9 °F /  27.7 °C 53.0 °F /  11.7 °C 30.04in /  1017.2hPa SW 3.5mph /  5.6km/h 2.7mph /  4.3km/h 37% 0.00in /  0mm 881.40 W/m2 CLR
16:44 82.2 °F /  27.9 °C 53.4 °F /  11.9 °C 30.04in /  1017.2hPa NNE 3.5mph /  5.6km/h 2.2mph /  3.5km/h 37% 0.00in /  0mm 881.40 W/m2 CLR
16:49 82.2 °F /  27.9 °C 53.4 °F /  11.9 °C 30.03in /  1016.8hPa SE 8.9mph /  14.3km/h 2.5mph /  4km/h 37% 0.00in /  0mm 879.40 W/m2 CLR
16:54 82.0 °F /  27.8 °C 53.2 °F /  11.8 °C 30.03in /  1016.8hPa ENE 2.9mph /  4.7km/h 2.0mph /  3.2km/h 37% 0.00in /  0mm 879.40 W/m2 CLR
16:59 82.2 °F /  27.9 °C 51.8 °F /  11 °C 30.03in /  1016.8hPa WSW 6.9mph /  11.1km/h 3.4mph /  5.5km/h 35% 0.00in /  0mm 874.30 W/m2 CLR
17:04 82.2 °F /  27.9 °C 51.8 °F /  11 °C 30.04in /  1017.2hPa North 2.3mph /  3.7km/h 3.6mph /  5.8km/h 35% 0.00in /  0mm 869.30 W/m2 CLR
17:09 81.3 °F /  27.4 °C 52.6 °F /  11.4 °C 30.03in /  1016.8hPa West 2.3mph /  3.7km/h 1.8mph /  2.9km/h 37% 0.00in /  0mm 866.30 W/m2 CLR
17:14 81.7 °F /  27.6 °C 52.9 °F /  11.6 °C 30.03in /  1016.8hPa NE 3.5mph /  5.6km/h 2.5mph /  4km/h 37% 0.00in /  0mm 866.30 W/m2 CLR
17:19 81.3 °F /  27.4 °C 51.0 °F /  10.6 °C 30.03in /  1016.8hPa ENE 4.6mph /  7.4km/h 3.1mph /  5km/h 35% 0.00in /  0mm 859.20 W/m2 CLR
17:24 81.7 °F /  27.6 °C 52.9 °F /  11.6 °C 30.03in /  1016.8hPa North 2.0mph /  3.2km/h 1.3mph /  2.1km/h 37% 0.00in /  0mm 855.20 W/m2 CLR
17:29 81.3 °F /  27.4 °C 51.0 °F /  10.6 °C 30.02in /  1016.5hPa West 5.8mph /  9.3km/h 2.9mph /  4.7km/h 35% 0.00in /  0mm 855.20 W/m2 CLR
17:34 81.3 °F /  27.4 °C 52.6 °F /  11.4 °C 30.02in /  1016.5hPa ESE 6.0mph /  9.7km/h 2.9mph /  4.7km/h 37% 0.00in /  0mm 850.10 W/m2 CLR
17:39 81.0 °F /  27.2 °C 50.7 °F /  10.4 °C 30.02in /  1016.5hPa ENE 2.9mph /  4.7km/h 1.8mph /  2.9km/h 35% 0.00in /  0mm 846.10 W/m2 CLR
17:44 81.0 °F /  27.2 °C 50.7 °F /  10.4 °C 30.02in /  1016.5hPa East 4.0mph /  6.4km/h 2.0mph /  3.2km/h 35% 0.00in /  0mm 836.00 W/m2 CLR
17:49 81.0 °F /  27.2 °C 50.7 °F /  10.4 °C 30.02in /  1016.5hPa NNW 3.5mph /  5.6km/h 2.0mph /  3.2km/h 35% 0.00in /  0mm 831.90 W/m2 CLR
17:54 80.1 °F /  26.7 °C 49.9 °F /  9.9 °C 30.02in /  1016.5hPa ENE 6.9mph /  11.1km/h 3.6mph /  5.8km/h 35% 0.00in /  0mm 829.90 W/m2 CLR
17:59 79.3 °F /  26.3 °C 50.8 °F /  10.4 °C 30.00in /  1015.8hPa North 3.5mph /  5.6km/h 2.9mph /  4.7km/h 37% 0.00in /  0mm 811.70 W/m2 CLR
18:04 79.3 °F /  26.3 °C 50.8 °F /  10.4 °C 30.02in /  1016.5hPa Calm   2.7mph /  4.3km/h 37% 0.00in /  0mm 722.80 W/m2 CLR
18:09 79.0 °F /  26.1 °C 50.5 °F /  10.3 °C 30.02in /  1016.5hPa West 5.8mph /  9.3km/h 3.1mph /  5km/h 37% 0.00in /  0mm 563.30 W/m2 CLR
18:14 78.8 °F /  26 °C 50.3 °F /  10.2 °C 30.02in /  1016.5hPa SE 3.5mph /  5.6km/h 2.7mph /  4.3km/h 37% 0.00in /  0mm 563.30 W/m2 CLR
18:19 78.4 °F /  25.8 °C 51.4 °F /  10.8 °C 30.00in /  1015.8hPa NW 3.5mph /  5.6km/h 1.3mph /  2.1km/h 39% 0.00in /  0mm 511.80 W/m2 CLR
18:24 78.3 °F /  25.7 °C 52.0 °F /  11.1 °C 30.00in /  1015.8hPa ESE 3.5mph /  5.6km/h 1.8mph /  2.9km/h 40% 0.00in /  0mm 454.20 W/m2 CLR
18:29 78.3 °F /  25.7 °C 51.3 °F /  10.7 °C 30.00in /  1015.8hPa WNW 3.5mph /  5.6km/h 1.8mph /  2.9km/h 39% 0.00in /  0mm 456.20 W/m2 CLR
18:34 77.5 °F /  25.3 °C 51.3 °F /  10.7 °C 30.02in /  1016.5hPa ENE 4.6mph /  7.4km/h 2.5mph /  4km/h 40% 0.00in /  0mm 435.00 W/m2 CLR
18:39 76.8 °F /  24.9 °C 50.7 °F /  10.4 °C 30.02in /  1016.5hPa NNW 3.5mph /  5.6km/h 1.6mph /  2.6km/h 40% 0.00in /  0mm 408.70 W/m2 CLR
18:44 76.3 °F /  24.6 °C 50.8 °F /  10.4 °C 30.02in /  1016.5hPa NNW 2.9mph /  4.7km/h 0.9mph /  1.4km/h 41% 0.00in /  0mm 371.40 W/m2 CLR
18:49 76.5 °F /  24.7 °C 50.3 °F /  10.2 °C 30.01in /  1016.1hPa WNW 4.6mph /  7.4km/h 2.5mph /  4km/h 40% 0.00in /  0mm 375.40 W/m2 CLR
18:54 76.5 °F /  24.7 °C 50.3 °F /  10.2 °C 30.00in /  1015.8hPa ESE 4.0mph /  6.4km/h 1.8mph /  2.9km/h 40% 0.00in /  0mm 392.60 W/m2 CLR
18:59 75.9 °F /  24.4 °C 50.5 °F /  10.3 °C 30.01in /  1016.1hPa SE 2.3mph /  3.7km/h 1.6mph /  2.6km/h 41% 0.00in /  0mm 379.40 W/m2 CLR
19:04 75.9 °F /  24.4 °C 50.5 °F /  10.3 °C 30.01in /  1016.1hPa South 3.5mph /  5.6km/h 2.2mph /  3.5km/h 41% 0.00in /  0mm 349.20 W/m2 CLR
19:09 75.6 °F /  24.2 °C 50.2 °F /  10.1 °C 30.01in /  1016.1hPa NW 2.3mph /  3.7km/h 0.7mph /  1.1km/h 41% 0.00in /  0mm 349.20 W/m2 CLR
19:14 75.6 °F /  24.2 °C 52.1 °F /  11.2 °C 30.00in /  1015.8hPa North 2.0mph /  3.2km/h 0.7mph /  1.1km/h 44% 0.00in /  0mm 343.10 W/m2 CLR
19:19 76.5 °F /  24.7 °C 51.0 °F /  10.6 °C 30.00in /  1015.8hPa North 2.0mph /  3.2km/h 1.1mph /  1.8km/h 41% 0.00in /  0mm 327.90 W/m2 CLR
19:24 76.5 °F /  24.7 °C 51.0 °F /  10.6 °C 30.00in /  1015.8hPa NNE 1.2mph /  1.9km/h 1.1mph /  1.8km/h 41% 0.00in /  0mm 327.90 W/m2 CLR
19:29 75.4 °F /  24.1 °C 50.0 °F /  10 °C 30.00in /  1015.8hPa ESE 2.9mph /  4.7km/h 2.0mph /  3.2km/h 41% 0.00in /  0mm 327.90 W/m2 CLR
19:34 74.3 °F /  23.5 °C 51.0 °F /  10.6 °C 30.00in /  1015.8hPa ESE 3.5mph /  5.6km/h 1.6mph /  2.6km/h 44% 0.00in /  0mm 319.90 W/m2 CLR
19:39 73.8 °F /  23.2 °C 51.1 °F /  10.6 °C 30.00in /  1015.8hPa NNE 3.5mph /  5.6km/h 0.9mph /  1.4km/h 45% 0.00in /  0mm 320.90 W/m2 CLR
19:44 73.9 °F /  23.3 °C 51.3 °F /  10.7 °C 30.01in /  1016.1hPa North 3.5mph /  5.6km/h 0.7mph /  1.1km/h 45% 0.00in /  0mm 320.90 W/m2 CLR
19:49 73.9 °F /  23.3 °C 50.6 °F /  10.3 °C 30.00in /  1015.8hPa NW 3.5mph /  5.6km/h 1.6mph /  2.6km/h 44% 0.00in /  0mm 317.80 W/m2 CLR
19:54 73.8 °F /  23.2 °C 50.5 °F /  10.3 °C 30.01in /  1016.1hPa South 2.0mph /  3.2km/h 1.1mph /  1.8km/h 44% 0.00in /  0mm 314.80 W/m2 CLR
19:59 73.0 °F /  22.8 °C 49.8 °F /  9.9 °C 30.00in /  1015.8hPa West 0.9mph /  1.4km/h 0.4mph /  0.6km/h 44% 0.00in /  0mm 309.80 W/m2 CLR
20:04 73.0 °F /  22.8 °C 50.4 °F /  10.2 °C 30.01in /  1016.1hPa Calm   0.2mph /  0.3km/h 45% 0.00in /  0mm 299.70 W/m2 CLR
20:09 72.3 °F /  22.4 °C 49.8 °F /  9.9 °C 30.01in /  1016.1hPa Calm     45% 0.00in /  0mm 299.70 W/m2 CLR
20:14 72.0 °F /  22.2 °C 49.5 °F /  9.7 °C 30.01in /  1016.1hPa Calm     45% 0.00in /  0mm 296.60 W/m2 CLR
20:19 71.1 °F /  21.7 °C 50.4 °F /  10.2 °C 30.01in /  1016.1hPa Calm     48% 0.00in /  0mm 282.50 W/m2 CLR
20:24 70.5 °F /  21.4 °C 51.0 °F /  10.6 °C 30.01in /  1016.1hPa Calm     50% 0.00in /  0mm 273.40 W/m2 CLR
20:29 70.0 °F /  21.1 °C 50.5 °F /  10.3 °C 30.01in /  1016.1hPa Calm     50% 0.00in /  0mm 261.30 W/m2 CLR
20:34 69.8 °F /  21 °C 50.3 °F /  10.2 °C 30.01in /  1016.1hPa Calm     50% 0.00in /  0mm 255.20 W/m2 CLR
20:39 69.1 °F /  20.6 °C 50.2 °F /  10.1 °C 30.01in /  1016.1hPa Calm     51% 0.00in /  0mm 240.10 W/m2 CLR
20:44 68.4 °F /  20.2 °C 51.6 °F /  10.9 °C 30.01in /  1016.1hPa Calm     55% 0.00in /  0mm 240.10 W/m2 CLR
20:49 67.6 °F /  19.8 °C 50.4 °F /  10.2 °C 30.02in /  1016.5hPa Calm     54% 0.00in /  0mm 208.80 W/m2 CLR
20:54 67.1 °F /  19.5 °C 50.4 °F /  10.2 °C 30.02in /  1016.5hPa Calm     55% 0.00in /  0mm 180.50 W/m2 CLR
20:59 66.4 °F /  19.1 °C 50.2 °F /  10.1 °C 30.02in /  1016.5hPa Calm     56% 0.00in /  0mm 155.20 W/m2 CLR
21:04 65.8 °F /  18.8 °C 50.6 °F /  10.3 °C 30.04in /  1017.2hPa Calm     58% 0.00in /  0mm 0.00 W/m2 CLR
21:09 64.9 °F /  18.3 °C 50.7 °F /  10.4 °C 30.04in /  1017.2hPa Calm     60% 0.00in /  0mm 0.00 W/m2 CLR
21:14 64.9 °F /  18.3 °C 50.7 °F /  10.4 °C 30.04in /  1017.2hPa Calm     60% 0.00in /  0mm 0.00 W/m2 CLR
21:19 63.7 °F /  17.6 °C 50.8 °F /  10.4 °C 30.04in /  1017.2hPa Calm     63% 0.00in /  0mm 0.00 W/m2 CLR
21:24 63.1 °F /  17.3 °C 51.2 °F /  10.7 °C 30.04in /  1017.2hPa Calm     65% 0.00in /  0mm 0.00 W/m2 CLR
21:29 63.0 °F /  17.2 °C 51.4 °F /  10.8 °C 30.04in /  1017.2hPa Calm     66% 0.00in /  0mm 0.00 W/m2 CLR
21:34 62.1 °F /  16.7 °C 50.6 °F /  10.3 °C 30.04in /  1017.2hPa Calm     66% 0.00in /  0mm 0.00 W/m2 CLR
21:39 61.7 °F /  16.5 °C 51.8 °F /  11 °C 30.05in /  1017.5hPa Calm     70% 0.00in /  0mm 0.00 W/m2 CLR
21:44 61.5 °F /  16.4 °C 51.3 °F /  10.7 °C 30.04in /  1017.2hPa Calm     69% 0.00in /  0mm 0.00 W/m2 CLR
21:49 60.6 °F /  15.9 °C 50.8 °F /  10.4 °C 30.04in /  1017.2hPa Calm     70% 0.00in /  0mm 0.00 W/m2 CLR
21:54 60.3 °F /  15.7 °C 50.8 °F /  10.4 °C 30.06in /  1017.8hPa Calm     71% 0.00in /  0mm 0.00 W/m2 CLR
21:59 60.1 °F /  15.6 °C 50.3 °F /  10.2 °C 30.06in /  1017.8hPa Calm     70% 0.00in /  0mm 0.00 W/m2 CLR
22:04 59.7 °F /  15.4 °C 51.0 °F /  10.6 °C 30.06in /  1017.8hPa Calm     73% 0.00in /  0mm 0.00 W/m2 CLR
22:09 59.4 °F /  15.2 °C 50.7 °F /  10.4 °C 30.06in /  1017.8hPa Calm     73% 0.00in /  0mm 0.00 W/m2 CLR
22:14 59.0 °F /  15 °C 50.7 °F /  10.4 °C 30.06in /  1017.8hPa Calm     74% 0.00in /  0mm 0.00 W/m2 CLR
22:19 58.5 °F /  14.7 °C 50.6 °F /  10.3 °C 30.06in /  1017.8hPa Calm     75% 0.00in /  0mm 0.00 W/m2 CLR
22:24 58.3 °F /  14.6 °C 50.4 °F /  10.2 °C 30.06in /  1017.8hPa Calm     75% 0.00in /  0mm 0.00 W/m2 CLR
22:29 57.7 °F /  14.3 °C 49.9 °F /  9.9 °C 30.07in /  1018.2hPa Calm     75% 0.00in /  0mm 0.00 W/m2 CLR
22:34 57.6 °F /  14.2 °C 49.7 °F /  9.8 °C 30.07in /  1018.2hPa Calm     75% 0.00in /  0mm 0.00 W/m2 CLR
22:39 57.2 °F /  14 °C 49.7 °F /  9.8 °C 30.06in /  1017.8hPa Calm     76% 0.00in /  0mm 0.00 W/m2 CLR
22:44 56.8 °F /  13.8 °C 50.1 °F /  10.1 °C 30.07in /  1018.2hPa Calm     78% 0.00in /  0mm 0.00 W/m2 CLR
22:49 56.7 °F /  13.7 °C 50.2 °F /  10.1 °C 30.06in /  1017.8hPa Calm     79% 0.00in /  0mm 0.00 W/m2 CLR
22:54 55.9 °F /  13.3 °C 50.2 °F /  10.1 °C 30.06in /  1017.8hPa Calm     81% 0.00in /  0mm 0.00 W/m2 CLR
22:59 55.9 °F /  13.3 °C 50.2 °F /  10.1 °C 30.06in /  1017.8hPa Calm     81% 0.00in /  0mm 0.00 W/m2 CLR
23:04 55.9 °F /  13.3 °C 50.2 °F /  10.1 °C 30.06in /  1017.8hPa Calm     81% 0.00in /  0mm 0.00 W/m2 CLR
23:09 55.6 °F /  13.1 °C 49.8 °F /  9.9 °C 30.06in /  1017.8hPa Calm     81% 0.00in /  0mm 0.00 W/m2 CLR
23:14 55.0 °F /  12.8 °C 50.0 °F /  10 °C 30.06in /  1017.8hPa Calm     83% 0.00in /  0mm 0.00 W/m2 CLR
23:19 55.0 °F /  12.8 °C 50.0 °F /  10 °C 30.06in /  1017.8hPa Calm     83% 0.00in /  0mm 0.00 W/m2 CLR
23:24 54.7 °F /  12.6 °C 50.3 °F /  10.2 °C 30.06in /  1017.8hPa Calm     85% 0.00in /  0mm 0.00 W/m2 CLR
23:29 54.7 °F /  12.6 °C 50.3 °F /  10.2 °C 30.06in /  1017.8hPa Calm     85% 0.00in /  0mm 0.00 W/m2 CLR
23:34 54.3 °F /  12.4 °C 50.2 °F /  10.1 °C 30.06in /  1017.8hPa Calm     86% 0.00in /  0mm 0.00 W/m2 CLR
23:39 54.3 °F /  12.4 °C 49.9 °F /  9.9 °C 30.06in /  1017.8hPa Calm     85% 0.00in /  0mm 0.00 W/m2 CLR
23:44 54.1 °F /  12.3 °C 50.0 °F /  10 °C 30.06in /  1017.8hPa Calm     86% 0.00in /  0mm 0.00 W/m2 CLR
23:49 54.1 °F /  12.3 °C 50.0 °F /  10 °C 30.06in /  1017.8hPa Calm     86% 0.00in /  0mm 0.00 W/m2 CLR
23:54 54.0 °F /  12.2 °C 50.5 °F /  10.3 °C 30.06in /  1017.8hPa Calm     88% 0.00in /  0mm 0.00 W/m2 CLR
23:59 54.0 °F /  12.2 °C 50.5 °F /  10.3 °C 30.06in /  1017.8hPa Calm     88% 0.00in /  0mm 0.00 W/m2 CLR
Juneau County Weather
Compliments of Weather Underground - 5.75 mb